Latest Weather Observations for Cunderdin Airport

IDW60801

Issued at 7:33 am WST Monday 6 February 2023 (issued every 10 minutes, with the page automatically refreshed every 10 minutes)

About weather observations | Map of weather stations | Latest weather observations for WA | Other Formats
Station Details ID: 010286 Name: CUNDERDIN AIRFIELD Lat: -31.62 Lon: 117.22 Height: 216.7 m
Data from the previous 72 hours. | See also: Recent months at Cunderdin Airport
Date/Time
WST
Temp
°C
App
Temp
°C
Dew
Point
°C
Rel
Hum
%
Delta-T
°C
Wind Press
QNH
hPa
Press
MSL
hPa
Rain since
9am
mm
Dir  Spd
km/h
Gust
km/h
Spd
kts
Gust
kts
06/07:30am 21.7 21.2 17.9 79 2.4 WNW 17 20 9 11 1009.1 1007.9 0.0
06/07:00am 20.8 21.1 17.8 83 1.9 WNW 13 22 7 12 1009.0 1007.8 0.0
06/06:30am 20.2 20.1 17.8 86 1.5 WNW 15 20 8 11 1008.9 1007.7 0.0
06/06:00am 20.0 20.7 18.0 88 1.2 NW 11 15 6 8 1008.9 1007.7 0.0
06/05:30am 19.8 20.9 18.1 90 1.1 NNW 9 13 5 7 1008.3 1007.1 0.0
06/05:00am 19.0 19.5 17.5 91 0.9 NW 11 15 6 8 1007.7 1006.5 0.0
06/04:59am 19.0 19.5 17.5 91 0.9 NW 11 15 6 8 1007.7 1006.5 0.0
06/04:30am 19.3 18.6 17.4 89 1.2 WNW 17 20 9 11 1006.8 1005.6 0.0
06/04:00am 19.7 19.5 17.5 87 1.4 WNW 15 17 8 9 1006.6 1005.4 0.0
06/03:30am 20.0 20.0 17.2 84 1.7 W 13 15 7 8 1006.5 1005.3 0.0
06/03:00am 20.7 20.5 17.5 82 2.0 WNW 15 19 8 10 1006.5 1005.3 0.0
06/02:30am 21.1 20.3 17.1 78 2.5 WNW 17 20 9 11 1006.2 1004.9 0.0
06/02:00am 21.7 20.9 17.1 75 2.9 WNW 17 20 9 11 1006.4 1005.2 0.0
06/01:30am 21.7 22.0 16.0 70 3.5 NNW 9 11 5 6 1006.5 1005.3 0.0
06/01:00am 23.0 22.0 16.5 67 4.0 W 17 20 9 11 1006.2 1004.9 0.0
06/12:30am 23.9 23.2 16.4 63 4.6 WSW 15 20 8 11 1006.1 1004.8 0.0
06/12:00am 24.4 23.7 16.4 61 5.0 W 15 19 8 10 1006.5 1005.3 0.0
 
Date/Time
WST
Temp
°C
App
Temp
°C
Dew
Point
°C
Rel
Hum
%
Delta-T
°C
Wind Press
QNH
hPa
Press
MSL
hPa
Rain since
9am
mm
Dir  Spd
km/h
Gust
km/h
Spd
kts
Gust
kts
05/11:30pm 24.5 23.9 14.6 54 5.9 WNW 11 13 6 7 1006.6 1005.4 0.0
05/11:00pm 25.0 23.4 13.9 50 6.6 W 15 17 8 9 1006.5 1005.3 0.0
05/10:30pm 25.3 24.8 13.8 49 6.8 NW 9 11 5 6 1006.7 1005.5 0.0
05/10:00pm 25.5 24.8 14.3 50 6.7 NE 11 13 6 7 1007.1 1005.9 0.0
05/09:30pm 27.1 26.6 13.8 44 8.0 N 9 11 5 6 1006.9 1005.7 0.0
05/09:00pm 28.3 26.9 13.4 40 8.9 NNW 13 19 7 10 1007.0 1005.8 0.0
05/08:30pm 30.0 26.9 13.3 36 10.0 N 22 30 12 16 1006.9 1005.7 0.0
05/08:00pm 30.3 28.2 13.6 36 10.1 NNE 17 22 9 12 1006.6 1005.4 0.0
05/07:30pm 30.9 30.2 13.2 34 10.7 E 9 15 5 8 1005.9 1004.6 0.0
05/07:00pm 31.1 27.2 13.4 34 10.7 NNE 26 37 14 20 1005.2 1003.9 0.0
05/06:57pm 31.3 27.1 13.6 34 10.7 NNE 28 37 15 20 1005.2 1003.9 0.0
05/06:43pm 33.0 28.7 12.1 28 12.5 NNE 26 44 14 24 1005.0 1003.7 0.0
05/06:40pm 34.4 30.5 10.9 24 13.9 NNE 22 44 12 24 1005.0 1003.7 0.0
05/06:30pm 34.7 30.4 9.2 21 14.7 NE 22 26 12 14 1004.2 1003.0 0.0
05/06:00pm 34.0 27.9 9.9 23 14.0 NE 32 41 17 22 1003.7 1002.5 0.0
05/05:30pm 35.9 30.3 8.7 19 15.6 NE 28 39 15 21 1003.8 1002.6 0.0
05/05:00pm 36.9 33.5 7.8 17 16.6 N 15 22 8 12 1003.8 1002.6 0.0
05/04:30pm 38.3 34.3 8.1 16 17.4 N 19 26 10 14 1003.9 1002.7 0.0
05/04:00pm 39.2 34.9 6.8 14 18.4 NNW 19 32 10 17 1004.3 1003.1 0.0
05/03:30pm 38.7 32.9 6.4 14 18.1 NW 26 39 14 21 1004.5 1003.3 0.0
05/03:00pm 39.3 34.3 7.9 15 18.1 NW 24 39 13 21 1005.0 1003.7 0.0
05/02:30pm 37.7 33.2 8.5 17 16.8 NW 22 39 12 21 1005.2 1003.9 0.0
05/02:00pm 38.4 34.5 7.2 15 17.8 NNW 17 33 9 18 1005.5 1004.2 0.0
05/01:30pm 39.9 35.8 6.3 13 19.0 NW 17 32 9 17 1005.9 1004.6 0.0
05/01:00pm 38.8 34.3 4.3 12 18.8 N 17 33 9 18 1006.1 1004.8 0.0
05/12:30pm 37.9 32.5 4.7 13 18.1 N 22 32 12 17 1006.7 1005.5 0.0
05/12:00pm 39.3 34.6 3.4 11 19.4 NNW 17 30 9 16 1007.0 1005.8 0.0
05/11:30am 37.8 32.6 2.3 11 18.7 NNE 19 32 10 17 1007.4 1006.2 0.0
05/11:00am 36.6 30.9 2.6 12 17.9 N 22 35 12 19 1007.9 1006.7 0.0
05/10:30am 35.8 29.8 0.8 11 17.8 N 22 37 12 20 1008.2 1007.0 0.0
05/10:00am 35.6 28.6 1.8 12 17.4 N 28 35 15 19 1008.6 1007.4 0.0
05/09:30am 34.4 27.2 0.9 12 16.9 N 28 35 15 19 1008.7 1007.5 0.0
05/09:00am 32.9 25.5 1.9 14 15.8 NNE 30 41 16 22 1008.8 1007.6 0.0
05/08:30am 31.3 22.5 1.6 15 14.8 NNE 37 46 20 25 1008.8 1007.6 0.0
05/08:00am 27.5 21.4 2.6 20 12.4 NNE 24 33 13 18 1008.7 1007.5 0.0
05/07:30am 27.2 20.4 3.0 21 12.1 NNE 28 37 15 20 1008.7 1007.5 0.0
05/07:00am 25.5 19.4 2.9 23 11.1 NE 24 35 13 19 1008.5 1007.3 0.0
05/06:30am 26.3 20.2 2.9 22 11.6 NE 24 30 13 16 1008.6 1007.4 0.0
05/06:00am 25.3 20.1 2.7 23 11.1 ENE 19 26 10 14 1008.3 1007.1 0.0
05/05:30am 23.3 18.9 2.7 26 9.9 E 15 19 8 10 1008.1 1006.9 0.0
05/05:00am 22.7 18.3 2.8 27 9.6 E 15 17 8 9 1008.0 1006.8 0.0
05/04:30am 23.3 18.9 2.7 26 9.9 ENE 15 19 8 10 1007.9 1006.7 0.0
05/04:00am 23.9 19.1 2.7 25 10.3 ESE 17 20 9 11 1007.8 1006.6 0.0
05/03:30am 23.8 19.4 2.6 25 10.3 ESE 15 17 8 9 1007.6 1006.4 0.0
05/03:00am 24.1 19.6 2.3 24 10.5 E 15 17 8 9 1007.5 1006.3 0.0
05/02:30am 24.0 19.6 2.8 25 10.3 ENE 15 17 8 9 1007.5 1006.3 0.0
05/02:00am 23.9 19.5 2.7 25 10.3 E 15 20 8 11 1007.7 1006.5 0.0
05/01:30am 23.2 19.6 2.7 26 9.9 E 11 13 6 7 1007.8 1006.6 0.0
05/01:00am 22.3 19.1 2.9 28 9.4 E 9 11 5 6 1007.7 1006.5 0.0
05/12:30am 20.1 16.9 2.9 32 8.1 ENE 9 9 5 5 1007.7 1006.5 0.0
05/12:00am 21.5 18.7 3.2 30 8.8 E 7 9 4 5 1007.8 1006.6 0.0
 
Date/Time
WST
Temp
°C
App
Temp
°C
Dew
Point
°C
Rel
Hum
%
Delta-T
°C
Wind Press
QNH
hPa
Press
MSL
hPa
Rain since
9am
mm
Dir  Spd
km/h
Gust
km/h
Spd
kts
Gust
kts
04/11:30pm 23.5 20.7 2.9 26 10.0 E 7 7 4 4 1008.0 1006.8 0.0
04/11:00pm 23.7 20.9 3.1 26 10.1 E 7 9 4 5 1007.8 1006.6 0.0
04/10:30pm 24.8 21.6 2.9 24 10.7 ESE 9 13 5 7 1007.7 1006.5 0.0
04/10:00pm 25.0 21.8 3.0 24 10.8 E 9 11 5 6 1007.7 1006.5 0.0
04/09:30pm 24.7 21.2 3.4 25 10.5 ENE 11 13 6 7 1007.7 1006.5 0.0
04/09:00pm 25.2 21.6 3.2 24 10.9 ENE 11 13 6 7 1007.7 1006.5 0.0
04/08:30pm 29.4 25.7 2.6 18 13.5 ESE 11 15 6 8 1007.5 1006.3 0.0
04/08:00pm 30.9 26.9 3.0 17 14.3 ESE 13 20 7 11 1007.3 1006.1 0.0
04/07:30pm 32.3 28.4 3.3 16 15.0 ESE 13 19 7 10 1006.9 1005.7 0.0
04/07:00pm 33.9 29.5 2.7 14 16.2 ESE 15 20 8 11 1006.6 1005.4 0.0
04/06:30pm 35.3 31.3 2.7 13 17.0 ESE 13 17 7 9 1006.4 1005.2 0.0
04/06:00pm 36.0 31.9 2.1 12 17.6 ENE 13 20 7 11 1006.2 1004.9 0.0
04/05:30pm 36.7 32.3 2.7 12 17.9 E 15 20 8 11 1006.1 1004.8 0.0
04/05:00pm 36.6 31.8 2.6 12 17.9 ENE 17 28 9 15 1006.2 1004.9 0.0
04/04:30pm 38.0 33.2 2.5 11 18.7 E 17 26 9 14 1006.3 1005.1 0.0
04/04:00pm 36.6 32.6 2.6 12 17.9 ESE 13 19 7 10 1006.5 1005.3 0.0
04/03:30pm 38.5 34.4 4.1 12 18.7 ESE 15 28 8 15 1006.8 1005.6 0.0
04/03:00pm 37.0 33.2 4.0 13 17.8 ESE 13 20 7 11 1007.3 1006.1 0.0
04/02:30pm 35.5 30.6 3.9 14 16.8 E 19 28 10 15 1007.7 1006.5 0.0
04/02:00pm 36.0 32.5 3.3 13 17.3 SE 11 20 6 11 1007.9 1006.7 0.0
04/01:30pm 36.3 31.7 3.5 13 17.4 ENE 17 26 9 14 1008.4 1007.2 0.0
04/01:00pm 36.0 31.1 4.3 14 17.0 ENE 19 32 10 17 1008.9 1007.7 0.0
04/12:30pm 34.6 29.5 4.2 15 16.2 NE 20 30 11 16 1009.3 1008.1 0.0
04/12:00pm 33.3 27.8 4.1 16 15.4 NNE 22 30 12 16 1009.8 1008.5 0.0
04/11:30am 32.8 27.0 4.6 17 15.0 NE 24 33 13 18 1010.2 1008.9 0.0
04/11:00am 32.3 27.0 5.0 18 14.5 NE 22 32 12 17 1010.6 1009.4 0.0
04/10:30am 31.5 25.3 4.3 18 14.2 ENE 26 39 14 21 1011.0 1009.8 0.0
04/10:00am 31.2 25.3 5.6 20 13.7 ENE 26 37 14 20 1011.3 1010.1 0.0
04/09:30am 29.3 23.3 5.4 22 12.6 NE 26 33 14 18 1011.6 1010.4 0.0
04/09:00am 28.8 22.1 5.6 23 12.2 NE 30 37 16 20 1011.7 1010.5 0.0
04/08:30am 27.6 21.3 5.8 25 11.4 NE 28 37 15 20 1011.9 1010.7 0.0
04/08:00am 25.5 20.7 5.7 28 10.3 E 20 26 11 14 1012.3 1011.1 0.0
04/07:30am 23.3 18.5 5.7 32 9.0 E 20 26 11 14 1012.2 1011.0 0.0
04/07:00am 21.8 17.3 6.1 36 8.0 E 19 24 10 13 1012.1 1010.9 0.0
04/06:30am 19.9 16.6 6.3 41 6.9 ESE 13 19 7 10 1011.9 1010.7 0.0
04/06:00am 18.8 15.8 6.0 43 6.4 SE 11 15 6 8 1011.5 1010.3 0.0
04/05:30am 18.7 14.9 5.9 43 6.4 ESE 15 20 8 11 1011.1 1009.9 0.0
04/05:00am 19.2 15.4 5.6 41 6.8 ESE 15 22 8 12 1010.7 1009.5 0.0
04/04:30am 19.7 15.8 5.4 39 7.1 ESE 15 20 8 11 1010.6 1009.4 0.0
04/04:00am 20.1 16.2 5.4 38 7.3 ESE 15 20 8 11 1010.3 1009.0 0.0
04/03:30am 20.7 16.8 5.5 37 7.6 ESE 15 20 8 11 1010.5 1009.3 0.0
04/03:00am 21.1 17.5 5.1 35 8.0 ESE 13 20 7 11 1010.2 1008.9 0.0
04/02:30am 21.6 17.6 5.1 34 8.2 E 15 19 8 10 1010.4 1009.1 0.0
04/02:00am 22.2 18.3 5.2 33 8.6 E 15 17 8 9 1010.5 1009.3 0.0
04/01:30am 23.0 18.6 5.0 31 9.1 E 17 22 9 12 1010.6 1009.4 0.0
04/01:00am 22.9 18.1 4.9 31 9.0 E 19 26 10 14 1010.4 1009.1 0.0
04/12:30am 22.8 19.1 4.3 30 9.2 ESE 13 19 7 10 1010.9 1009.7 0.0
04/12:00am 23.5 18.6 4.0 28 9.7 E 19 22 10 12 1010.9 1009.7 0.0
 
Date/Time
WST
Temp
°C
App
Temp
°C
Dew
Point
°C
Rel
Hum
%
Delta-T
°C
Wind Press
QNH
hPa
Press
MSL
hPa
Rain since
9am
mm
Dir  Spd
km/h
Gust
km/h
Spd
kts
Gust
kts
03/11:30pm 24.0 19.8 3.9 27 10.0 ESE 15 20 8 11 1011.2 1010.0 0.0
03/11:00pm 24.3 19.6 3.0 25 10.4 ESE 17 26 9 14 1011.2 1010.0 0.0
03/10:30pm 24.7 20.3 2.8 24 10.7 ESE 15 20 8 11 1011.2 1010.0 0.0
03/10:00pm 25.3 20.5 2.7 23 11.1 ESE 17 22 9 12 1011.3 1010.1 0.0
03/09:30pm 26.1 22.2 3.4 23 11.3 SE 13 20 7 11 1011.2 1010.0 0.0
03/09:00pm 27.1 22.7 2.9 21 12.1 ESE 15 20 8 11 1010.9 1009.7 0.0
03/08:30pm 27.8 23.5 3.5 21 12.3 ESE 15 20 8 11 1010.5 1009.3 0.0
03/08:00pm 28.7 24.8 3.5 20 12.8 ESE 13 20 7 11 1010.6 1009.4 0.0
03/07:30pm 29.9 25.4 2.2 17 13.9 ESE 15 20 8 11 1010.2 1008.9 0.0
03/07:00pm 31.1 25.9 2.3 16 14.6 E 19 28 10 15 1009.8 1008.5 0.0
03/06:30pm 32.2 26.2 1.3 14 15.5 E 22 33 12 18 1009.4 1008.2 0.0
03/06:00pm 32.9 25.9 1.9 14 15.8 E 28 37 15 20 1009.2 1008.0 0.0
03/05:30pm 33.5 27.7 2.4 14 16.0 ESE 22 35 12 19 1009.4 1008.2 0.0
03/05:00pm 33.9 27.6 1.6 13 16.4 E 24 33 13 18 1009.6 1008.3 0.0
03/04:30pm 34.1 28.0 0.7 12 16.7 E 22 32 12 17 1009.8 1008.5 0.0
03/04:00pm 33.7 27.9 2.5 14 16.1 E 22 32 12 17 1010.2 1008.9 0.0
03/03:30pm 33.9 27.8 2.7 14 16.1 E 24 43 13 23 1010.5 1009.3 0.0
03/03:00pm 33.5 27.5 3.3 15 15.8 E 24 43 13 23 1011.0 1009.8 0.0
03/02:30pm 33.2 28.1 4.0 16 15.4 ESE 20 32 11 17 1011.5 1010.3 0.0
03/02:00pm 32.7 27.8 5.3 18 14.7 ESE 20 37 11 20 1011.9 1010.7 0.0
03/01:30pm 32.4 27.6 5.8 19 14.3 E 20 33 11 18 1012.7 1011.5 0.0
03/01:00pm 31.7 26.9 7.4 22 13.4 E 22 33 12 18 1013.0 1011.8 0.0
03/12:30pm 30.4 25.7 7.6 24 12.5 E 22 33 12 18 1013.6 1012.4 0.0
03/12:00pm 29.6 24.7 8.6 27 11.7 E 24 35 13 19 1014.2 1013.0 0.0
03/11:30am 29.0 24.3 9.2 29 11.1 E 24 37 13 20 1014.6 1013.4 0.0
03/11:24am 28.2 23.6 9.5 31 10.5 E 24 35 13 19 1014.7 1013.5 0.0
03/11:07am 27.9 23.3 9.7 32 10.2 E 24 35 13 19 1014.9 1013.7 0.0
03/11:00am 27.7 22.8 10.0 33 10.0 ENE 26 39 14 21 1015.1 1013.9 0.0
03/10:30am 25.8 20.5 10.0 37 8.8 E 28 37 15 20 1015.5 1014.3 0.0
03/10:00am 24.7 19.9 10.2 40 8.1 E 26 39 14 21 1016.0 1014.8 0.0
03/09:30am 23.2 18.4 10.3 44 7.2 E 26 37 14 20 1016.4 1015.2 0.0
03/09:00am 22.3 18.0 10.8 48 6.4 E 24 32 13 17 1016.7 1015.5 0.0
03/08:30am 21.0 17.2 11.1 53 5.5 E 22 33 12 18 1016.8 1015.6 0.0
03/08:00am 19.6 15.5 11.6 60 4.5 E 24 33 13 18 1016.9 1015.7 0.0

Other formats

Comma delimited format used in spreadsheet applications
http://www.bom.gov.au/fwo/IDW60801/IDW60801.95625.axf

JavaScript Object Notation format (JSON) in row-major order
http://www.bom.gov.au/fwo/IDW60801/IDW60801.95625.json

Data quality

Most of these data are generated automatically and are frequently updated. Quality checks on data are not normally performed. It is possible for incorrect values to appear. Refer to information at About Latest Weather Observations and please check the disclaimer before using these data.